sensor_id;sensor_type;location;lat;lon;timestamp;P1;durP1;ratioP1;P2;durP2;ratioP2
5801;SDS011;2927;49.366;8.530;2023-03-05T00:01:15;31.70;;;13.07;;
5801;SDS011;2927;49.366;8.530;2023-03-05T00:03:43;32.73;;;12.37;;
5801;SDS011;2927;49.366;8.530;2023-03-05T00:06:09;40.57;;;14.43;;
5801;SDS011;2927;49.366;8.530;2023-03-05T00:08:35;40.53;;;13.70;;
5801;SDS011;2927;49.366;8.530;2023-03-05T00:11:02;36.07;;;14.20;;
5801;SDS011;2927;49.366;8.530;2023-03-05T00:13:29;44.10;;;13.27;;
5801;SDS011;2927;49.366;8.530;2023-03-05T00:15:56;41.67;;;13.13;;
5801;SDS011;2927;49.366;8.530;2023-03-05T00:18:22;40.80;;;13.70;;
5801;SDS011;2927;49.366;8.530;2023-03-05T00:20:48;44.70;;;13.60;;
5801;SDS011;2927;49.366;8.530;2023-03-05T00:23:14;39.10;;;14.27;;
5801;SDS011;2927;49.366;8.530;2023-03-05T00:25:40;42.27;;;13.57;;
5801;SDS011;2927;49.366;8.530;2023-03-05T00:28:06;37.40;;;12.60;;
5801;SDS011;2927;49.366;8.530;2023-03-05T00:30:32;40.97;;;13.43;;
5801;SDS011;2927;49.366;8.530;2023-03-05T00:32:59;38.57;;;13.97;;
5801;SDS011;2927;49.366;8.530;2023-03-05T00:35:25;38.20;;;13.43;;
5801;SDS011;2927;49.366;8.530;2023-03-05T00:37:51;39.47;;;13.73;;
5801;SDS011;2927;49.366;8.530;2023-03-05T00:40:17;37.57;;;12.33;;
5801;SDS011;2927;49.366;8.530;2023-03-05T00:42:43;34.93;;;11.87;;
5801;SDS011;2927;49.366;8.530;2023-03-05T00:45:09;32.90;;;12.07;;
5801;SDS011;2927;49.366;8.530;2023-03-05T00:47:35;37.63;;;12.30;;
5801;SDS011;2927;49.366;8.530;2023-03-05T00:50:01;37.60;;;14.10;;
5801;SDS011;2927;49.366;8.530;2023-03-05T00:52:27;35.63;;;12.80;;
5801;SDS011;2927;49.366;8.530;2023-03-05T00:54:53;37.70;;;12.87;;
5801;SDS011;2927;49.366;8.530;2023-03-05T00:57:18;37.60;;;14.03;;
5801;SDS011;2927;49.366;8.530;2023-03-05T00:59:44;43.20;;;14.23;;
5801;SDS011;2927;49.366;8.530;2023-03-05T01:02:10;33.53;;;13.30;;
5801;SDS011;2927;49.366;8.530;2023-03-05T01:04:35;44.00;;;12.30;;
5801;SDS011;2927;49.366;8.530;2023-03-05T01:07:02;43.60;;;12.90;;
5801;SDS011;2927;49.366;8.530;2023-03-05T01:09:28;33.47;;;13.60;;
5801;SDS011;2927;49.366;8.530;2023-03-05T01:11:54;37.90;;;14.10;;
5801;SDS011;2927;49.366;8.530;2023-03-05T01:14:19;40.03;;;13.60;;
5801;SDS011;2927;49.366;8.530;2023-03-05T01:16:45;36.47;;;13.60;;
5801;SDS011;2927;49.366;8.530;2023-03-05T01:19:12;40.07;;;15.20;;
5801;SDS011;2927;49.366;8.530;2023-03-05T01:21:39;38.83;;;13.70;;
5801;SDS011;2927;49.366;8.530;2023-03-05T01:24:05;41.57;;;13.70;;
5801;SDS011;2927;49.366;8.530;2023-03-05T01:26:31;33.80;;;12.87;;
5801;SDS011;2927;49.366;8.530;2023-03-05T01:28:56;37.97;;;13.70;;
5801;SDS011;2927;49.366;8.530;2023-03-05T01:31:22;36.77;;;14.03;;
5801;SDS011;2927;49.366;8.530;2023-03-05T01:33:50;35.47;;;14.60;;
5801;SDS011;2927;49.366;8.530;2023-03-05T01:36:16;37.57;;;14.47;;
5801;SDS011;2927;49.366;8.530;2023-03-05T01:38:43;46.00;;;15.67;;
5801;SDS011;2927;49.366;8.530;2023-03-05T01:41:09;39.80;;;14.13;;
5801;SDS011;2927;49.366;8.530;2023-03-05T01:43:36;38.83;;;14.90;;
5801;SDS011;2927;49.366;8.530;2023-03-05T01:48:46;38.83;;;13.47;;
5801;SDS011;2927;49.366;8.530;2023-03-05T01:51:16;44.90;;;15.80;;
5801;SDS011;2927;49.366;8.530;2023-03-05T01:53:42;36.57;;;14.23;;
5801;SDS011;2927;49.366;8.530;2023-03-05T01:56:08;36.30;;;14.70;;
5801;SDS011;2927;49.366;8.530;2023-03-05T01:58:34;37.57;;;14.37;;
5801;SDS011;2927;49.366;8.530;2023-03-05T02:00:59;46.73;;;15.03;;
5801;SDS011;2927;49.366;8.530;2023-03-05T02:03:26;52.60;;;16.97;;
5801;SDS011;2927;49.366;8.530;2023-03-05T02:05:51;43.47;;;15.77;;
5801;SDS011;2927;49.366;8.530;2023-03-05T02:08:18;45.53;;;16.70;;
5801;SDS011;2927;49.366;8.530;2023-03-05T02:10:49;34.33;;;13.23;;
5801;SDS011;2927;49.366;8.530;2023-03-05T02:13:18;46.27;;;15.80;;
5801;SDS011;2927;49.366;8.530;2023-03-05T02:15:46;38.60;;;13.77;;
5801;SDS011;2927;49.366;8.530;2023-03-05T02:18:13;38.90;;;15.10;;
5801;SDS011;2927;49.366;8.530;2023-03-05T02:23:22;35.77;;;14.70;;
5801;SDS011;2927;49.366;8.530;2023-03-05T02:25:49;38.90;;;15.67;;
5801;SDS011;2927;49.366;8.530;2023-03-05T02:30:44;46.90;;;16.90;;
5801;SDS011;2927;49.366;8.530;2023-03-05T02:33:12;50.20;;;18.43;;
5801;SDS011;2927;49.366;8.530;2023-03-05T02:35:38;42.70;;;14.97;;
5801;SDS011;2927;49.366;8.530;2023-03-05T02:38:04;38.83;;;13.80;;
5801;SDS011;2927;49.366;8.530;2023-03-05T02:40:30;41.13;;;13.90;;
5801;SDS011;2927;49.366;8.530;2023-03-05T02:42:55;41.93;;;13.93;;
5801;SDS011;2927;49.366;8.530;2023-03-05T02:45:21;40.17;;;16.07;;
5801;SDS011;2927;49.366;8.530;2023-03-05T02:47:46;31.80;;;13.40;;
5801;SDS011;2927;49.366;8.530;2023-03-05T02:50:12;34.83;;;13.30;;
5801;SDS011;2927;49.366;8.530;2023-03-05T02:52:38;39.80;;;15.07;;
5801;SDS011;2927;49.366;8.530;2023-03-05T02:55:04;42.70;;;14.77;;
5801;SDS011;2927;49.366;8.530;2023-03-05T02:57:30;41.77;;;13.83;;
5801;SDS011;2927;49.366;8.530;2023-03-05T02:59:56;41.63;;;12.60;;
5801;SDS011;2927;49.366;8.530;2023-03-05T03:02:21;45.80;;;14.53;;
5801;SDS011;2927;49.366;8.530;2023-03-05T03:04:47;45.73;;;14.73;;
5801;SDS011;2927;49.366;8.530;2023-03-05T03:07:13;34.23;;;13.80;;
5801;SDS011;2927;49.366;8.530;2023-03-05T03:09:39;47.03;;;14.03;;
5801;SDS011;2927;49.366;8.530;2023-03-05T03:12:07;43.60;;;14.20;;
5801;SDS011;2927;49.366;8.530;2023-03-05T03:14:34;42.37;;;13.73;;
5801;SDS011;2927;49.366;8.530;2023-03-05T03:17:05;37.30;;;13.63;;
5801;SDS011;2927;49.366;8.530;2023-03-05T03:19:31;40.57;;;14.87;;
5801;SDS011;2927;49.366;8.530;2023-03-05T03:21:57;33.63;;;13.00;;
5801;SDS011;2927;49.366;8.530;2023-03-05T03:24:23;35.87;;;13.80;;
5801;SDS011;2927;49.366;8.530;2023-03-05T03:26:48;38.40;;;13.30;;
5801;SDS011;2927;49.366;8.530;2023-03-05T03:29:14;37.03;;;14.30;;
5801;SDS011;2927;49.366;8.530;2023-03-05T03:31:41;37.07;;;14.03;;
5801;SDS011;2927;49.366;8.530;2023-03-05T03:34:09;39.50;;;14.67;;
5801;SDS011;2927;49.366;8.530;2023-03-05T03:36:36;40.00;;;14.83;;
5801;SDS011;2927;49.366;8.530;2023-03-05T03:39:02;39.50;;;15.00;;
5801;SDS011;2927;49.366;8.530;2023-03-05T03:41:29;43.57;;;14.23;;
5801;SDS011;2927;49.366;8.530;2023-03-05T03:43:55;29.57;;;12.90;;
5801;SDS011;2927;49.366;8.530;2023-03-05T03:46:21;41.10;;;15.07;;
5801;SDS011;2927;49.366;8.530;2023-03-05T03:48:48;52.93;;;14.63;;
5801;SDS011;2927;49.366;8.530;2023-03-05T03:51:14;40.07;;;13.20;;
5801;SDS011;2927;49.366;8.530;2023-03-05T03:53:40;34.50;;;11.70;;
5801;SDS011;2927;49.366;8.530;2023-03-05T03:56:06;31.40;;;12.43;;
5801;SDS011;2927;49.366;8.530;2023-03-05T03:58:31;39.67;;;13.27;;
5801;SDS011;2927;49.366;8.530;2023-03-05T04:00:57;37.23;;;13.00;;
5801;SDS011;2927;49.366;8.530;2023-03-05T04:03:22;41.33;;;13.40;;
5801;SDS011;2927;49.366;8.530;2023-03-05T04:05:48;37.10;;;13.00;;
5801;SDS011;2927;49.366;8.530;2023-03-05T04:08:13;36.63;;;12.93;;
5801;SDS011;2927;49.366;8.530;2023-03-05T04:10:39;39.17;;;13.00;;
5801;SDS011;2927;49.366;8.530;2023-03-05T04:13:05;37.40;;;13.20;;
5801;SDS011;2927;49.366;8.530;2023-03-05T04:15:31;41.33;;;12.50;;
5801;SDS011;2927;49.366;8.530;2023-03-05T04:17:57;43.53;;;14.30;;
5801;SDS011;2927;49.366;8.530;2023-03-05T04:20:23;49.27;;;15.27;;
5801;SDS011;2927;49.366;8.530;2023-03-05T04:22:49;33.00;;;13.30;;
5801;SDS011;2927;49.366;8.530;2023-03-05T04:25:14;36.13;;;13.23;;
5801;SDS011;2927;49.366;8.530;2023-03-05T04:27:40;35.80;;;11.80;;
5801;SDS011;2927;49.366;8.530;2023-03-05T04:30:06;39.60;;;12.53;;
5801;SDS011;2927;49.366;8.530;2023-03-05T04:32:32;44.00;;;12.83;;
5801;SDS011;2927;49.366;8.530;2023-03-05T04:34:58;28.33;;;12.83;;
5801;SDS011;2927;49.366;8.530;2023-03-05T04:37:24;31.43;;;12.73;;
5801;SDS011;2927;49.366;8.530;2023-03-05T04:39:50;34.20;;;11.70;;
5801;SDS011;2927;49.366;8.530;2023-03-05T04:42:17;43.27;;;13.70;;
5801;SDS011;2927;49.366;8.530;2023-03-05T04:44:44;44.37;;;13.17;;
5801;SDS011;2927;49.366;8.530;2023-03-05T04:47:13;31.27;;;12.10;;
5801;SDS011;2927;49.366;8.530;2023-03-05T04:49:38;34.83;;;12.03;;
5801;SDS011;2927;49.366;8.530;2023-03-05T04:52:04;33.23;;;12.23;;
5801;SDS011;2927;49.366;8.530;2023-03-05T04:54:29;28.03;;;10.83;;
5801;SDS011;2927;49.366;8.530;2023-03-05T04:56:55;33.40;;;12.17;;
5801;SDS011;2927;49.366;8.530;2023-03-05T04:59:21;27.20;;;11.57;;
5801;SDS011;2927;49.366;8.530;2023-03-05T05:01:46;31.80;;;11.60;;
5801;SDS011;2927;49.366;8.530;2023-03-05T05:04:12;33.50;;;11.17;;
5801;SDS011;2927;49.366;8.530;2023-03-05T05:06:37;30.47;;;11.70;;
5801;SDS011;2927;49.366;8.530;2023-03-05T05:09:03;34.87;;;11.53;;
5801;SDS011;2927;49.366;8.530;2023-03-05T05:11:28;30.07;;;11.57;;
5801;SDS011;2927;49.366;8.530;2023-03-05T05:13:54;33.43;;;12.17;;
5801;SDS011;2927;49.366;8.530;2023-03-05T05:16:19;36.83;;;12.30;;
5801;SDS011;2927;49.366;8.530;2023-03-05T05:18:45;43.33;;;16.20;;
5801;SDS011;2927;49.366;8.530;2023-03-05T05:21:11;32.00;;;12.30;;
5801;SDS011;2927;49.366;8.530;2023-03-05T05:23:37;37.23;;;12.50;;
5801;SDS011;2927;49.366;8.530;2023-03-05T05:26:04;35.83;;;12.23;;
5801;SDS011;2927;49.366;8.530;2023-03-05T05:28:30;36.03;;;12.30;;
5801;SDS011;2927;49.366;8.530;2023-03-05T05:30:56;41.80;;;13.53;;
5801;SDS011;2927;49.366;8.530;2023-03-05T05:33:22;38.37;;;13.13;;
5801;SDS011;2927;49.366;8.530;2023-03-05T05:35:49;29.63;;;12.00;;
5801;SDS011;2927;49.366;8.530;2023-03-05T05:38:14;48.07;;;12.50;;
5801;SDS011;2927;49.366;8.530;2023-03-05T05:40:40;41.80;;;13.00;;
5801;SDS011;2927;49.366;8.530;2023-03-05T05:43:06;32.73;;;12.20;;
5801;SDS011;2927;49.366;8.530;2023-03-05T05:45:31;41.77;;;13.67;;
5801;SDS011;2927;49.366;8.530;2023-03-05T05:47:57;38.07;;;13.17;;
5801;SDS011;2927;49.366;8.530;2023-03-05T05:50:23;38.27;;;12.53;;
5801;SDS011;2927;49.366;8.530;2023-03-05T05:52:51;36.87;;;12.93;;
5801;SDS011;2927;49.366;8.530;2023-03-05T05:55:17;39.73;;;13.30;;
5801;SDS011;2927;49.366;8.530;2023-03-05T05:57:43;32.27;;;11.70;;
5801;SDS011;2927;49.366;8.530;2023-03-05T06:00:09;43.63;;;11.73;;
5801;SDS011;2927;49.366;8.530;2023-03-05T06:02:37;38.17;;;11.50;;
5801;SDS011;2927;49.366;8.530;2023-03-05T06:05:04;36.77;;;12.13;;
5801;SDS011;2927;49.366;8.530;2023-03-05T06:07:29;45.83;;;14.33;;
5801;SDS011;2927;49.366;8.530;2023-03-05T06:09:55;37.47;;;12.77;;
5801;SDS011;2927;49.366;8.530;2023-03-05T06:12:21;37.37;;;14.83;;
5801;SDS011;2927;49.366;8.530;2023-03-05T06:14:47;43.13;;;13.63;;
5801;SDS011;2927;49.366;8.530;2023-03-05T06:17:12;30.70;;;13.40;;
5801;SDS011;2927;49.366;8.530;2023-03-05T06:19:38;39.17;;;13.40;;
5801;SDS011;2927;49.366;8.530;2023-03-05T06:22:03;42.57;;;12.50;;
5801;SDS011;2927;49.366;8.530;2023-03-05T06:24:29;31.83;;;12.20;;
5801;SDS011;2927;49.366;8.530;2023-03-05T06:26:54;35.97;;;11.17;;
5801;SDS011;2927;49.366;8.530;2023-03-05T06:29:20;40.20;;;12.23;;
5801;SDS011;2927;49.366;8.530;2023-03-05T06:31:45;32.40;;;11.87;;
5801;SDS011;2927;49.366;8.530;2023-03-05T06:34:11;34.90;;;13.47;;
5801;SDS011;2927;49.366;8.530;2023-03-05T06:36:37;35.50;;;12.27;;
5801;SDS011;2927;49.366;8.530;2023-03-05T06:39:02;41.33;;;12.77;;
5801;SDS011;2927;49.366;8.530;2023-03-05T06:41:29;36.13;;;13.03;;
5801;SDS011;2927;49.366;8.530;2023-03-05T06:43:56;37.33;;;13.80;;
5801;SDS011;2927;49.366;8.530;2023-03-05T06:46:27;42.67;;;16.00;;
5801;SDS011;2927;49.366;8.530;2023-03-05T06:48:55;46.13;;;16.27;;
5801;SDS011;2927;49.366;8.530;2023-03-05T06:51:23;57.10;;;17.13;;
5801;SDS011;2927;49.366;8.530;2023-03-05T06:53:51;48.47;;;17.47;;
5801;SDS011;2927;49.366;8.530;2023-03-05T06:56:18;38.87;;;12.73;;
5801;SDS011;2927;49.366;8.530;2023-03-05T06:58:45;41.73;;;13.77;;
5801;SDS011;2927;49.366;8.530;2023-03-05T07:01:12;38.17;;;12.63;;
5801;SDS011;2927;49.366;8.530;2023-03-05T07:03:39;39.43;;;14.90;;
5801;SDS011;2927;49.366;8.530;2023-03-05T07:06:06;37.20;;;14.60;;
5801;SDS011;2927;49.366;8.530;2023-03-05T07:08:34;38.63;;;13.50;;
5801;SDS011;2927;49.366;8.530;2023-03-05T07:11:00;49.67;;;14.87;;
5801;SDS011;2927;49.366;8.530;2023-03-05T07:13:26;64.10;;;18.50;;
5801;SDS011;2927;49.366;8.530;2023-03-05T07:15:52;48.70;;;18.90;;
5801;SDS011;2927;49.366;8.530;2023-03-05T07:18:18;49.27;;;16.80;;
5801;SDS011;2927;49.366;8.530;2023-03-05T07:20:44;44.20;;;14.17;;
5801;SDS011;2927;49.366;8.530;2023-03-05T07:23:10;43.00;;;15.00;;
5801;SDS011;2927;49.366;8.530;2023-03-05T07:25:36;44.73;;;15.53;;
5801;SDS011;2927;49.366;8.530;2023-03-05T07:28:03;40.17;;;14.50;;
5801;SDS011;2927;49.366;8.530;2023-03-05T07:30:30;39.70;;;14.70;;
5801;SDS011;2927;49.366;8.530;2023-03-05T07:32:56;33.57;;;12.87;;
5801;SDS011;2927;49.366;8.530;2023-03-05T07:35:21;31.67;;;13.03;;
5801;SDS011;2927;49.366;8.530;2023-03-05T07:37:48;42.07;;;14.30;;
5801;SDS011;2927;49.366;8.530;2023-03-05T07:40:14;41.67;;;15.80;;
5801;SDS011;2927;49.366;8.530;2023-03-05T07:42:40;40.93;;;16.00;;
5801;SDS011;2927;49.366;8.530;2023-03-05T07:45:06;42.10;;;14.37;;
5801;SDS011;2927;49.366;8.530;2023-03-05T07:47:32;36.67;;;14.60;;
5801;SDS011;2927;49.366;8.530;2023-03-05T07:49:58;39.40;;;13.40;;
5801;SDS011;2927;49.366;8.530;2023-03-05T07:52:23;41.77;;;15.00;;
5801;SDS011;2927;49.366;8.530;2023-03-05T07:54:49;40.80;;;14.43;;
5801;SDS011;2927;49.366;8.530;2023-03-05T07:57:15;26.03;;;12.13;;
5801;SDS011;2927;49.366;8.530;2023-03-05T07:59:40;35.47;;;14.37;;
5801;SDS011;2927;49.366;8.530;2023-03-05T08:02:08;28.80;;;11.80;;
5801;SDS011;2927;49.366;8.530;2023-03-05T08:04:35;33.87;;;13.90;;
5801;SDS011;2927;49.366;8.530;2023-03-05T08:07:01;38.20;;;13.20;;
5801;SDS011;2927;49.366;8.530;2023-03-05T08:09:26;28.63;;;13.13;;
5801;SDS011;2927;49.366;8.530;2023-03-05T08:11:52;34.77;;;12.40;;
5801;SDS011;2927;49.366;8.530;2023-03-05T08:14:17;33.03;;;13.67;;
5801;SDS011;2927;49.366;8.530;2023-03-05T08:16:43;22.13;;;10.13;;
5801;SDS011;2927;49.366;8.530;2023-03-05T08:19:08;21.73;;;10.10;;
5801;SDS011;2927;49.366;8.530;2023-03-05T08:21:35;31.97;;;13.20;;
5801;SDS011;2927;49.366;8.530;2023-03-05T08:24:05;33.30;;;14.13;;
5801;SDS011;2927;49.366;8.530;2023-03-05T08:26:32;29.97;;;12.13;;
5801;SDS011;2927;49.366;8.530;2023-03-05T08:28:59;20.87;;;11.10;;
5801;SDS011;2927;49.366;8.530;2023-03-05T08:31:25;29.20;;;11.23;;
5801;SDS011;2927;49.366;8.530;2023-03-05T08:33:52;19.33;;;10.90;;
5801;SDS011;2927;49.366;8.530;2023-03-05T08:36:19;26.00;;;10.67;;
5801;SDS011;2927;49.366;8.530;2023-03-05T08:38:45;26.60;;;11.93;;
5801;SDS011;2927;49.366;8.530;2023-03-05T08:41:12;21.97;;;9.60;;
5801;SDS011;2927;49.366;8.530;2023-03-05T08:43:39;22.60;;;10.63;;
5801;SDS011;2927;49.366;8.530;2023-03-05T08:46:05;23.03;;;11.13;;
5801;SDS011;2927;49.366;8.530;2023-03-05T08:48:31;24.40;;;11.07;;
5801;SDS011;2927;49.366;8.530;2023-03-05T08:50:57;27.70;;;11.67;;
5801;SDS011;2927;49.366;8.530;2023-03-05T08:53:36;23.87;;;9.97;;
5801;SDS011;2927;49.366;8.530;2023-03-05T08:56:03;22.40;;;10.50;;
5801;SDS011;2927;49.366;8.530;2023-03-05T08:58:28;23.40;;;11.50;;
5801;SDS011;2927;49.366;8.530;2023-03-05T09:00:54;30.17;;;11.93;;
5801;SDS011;2927;49.366;8.530;2023-03-05T09:03:20;27.00;;;11.30;;
5801;SDS011;2927;49.366;8.530;2023-03-05T09:05:46;22.97;;;10.83;;
5801;SDS011;2927;49.366;8.530;2023-03-05T09:08:11;31.23;;;11.17;;
5801;SDS011;2927;49.366;8.530;2023-03-05T09:10:39;30.90;;;13.30;;
5801;SDS011;2927;49.366;8.530;2023-03-05T09:13:06;25.63;;;11.83;;
5801;SDS011;2927;49.366;8.530;2023-03-05T09:15:32;26.67;;;11.70;;
5801;SDS011;2927;49.366;8.530;2023-03-05T09:17:57;28.33;;;11.20;;
5801;SDS011;2927;49.366;8.530;2023-03-05T09:20:23;23.17;;;10.30;;
5801;SDS011;2927;49.366;8.530;2023-03-05T09:22:49;20.03;;;9.23;;
5801;SDS011;2927;49.366;8.530;2023-03-05T09:25:15;22.57;;;9.73;;
5801;SDS011;2927;49.366;8.530;2023-03-05T09:27:40;27.13;;;11.83;;
5801;SDS011;2927;49.366;8.530;2023-03-05T09:30:07;25.53;;;9.27;;
5801;SDS011;2927;49.366;8.530;2023-03-05T09:32:34;19.10;;;9.40;;
5801;SDS011;2927;49.366;8.530;2023-03-05T09:34:59;25.63;;;9.37;;
5801;SDS011;2927;49.366;8.530;2023-03-05T09:37:25;23.57;;;8.43;;
5801;SDS011;2927;49.366;8.530;2023-03-05T09:39:50;16.80;;;7.63;;
5801;SDS011;2927;49.366;8.530;2023-03-05T09:50:35;13.40;;;6.40;;
5801;SDS011;2927;49.366;8.530;2023-03-05T09:56:12;12.23;;;6.37;;
5801;SDS011;2927;49.366;8.530;2023-03-05T09:58:48;11.77;;;5.47;;
5801;SDS011;2927;49.366;8.530;2023-03-05T10:01:23;10.03;;;4.77;;
5801;SDS011;2927;49.366;8.530;2023-03-05T10:04:03;14.13;;;5.57;;
5801;SDS011;2927;49.366;8.530;2023-03-05T10:06:35;9.70;;;5.13;;
5801;SDS011;2927;49.366;8.530;2023-03-05T10:11:48;15.83;;;6.23;;
5801;SDS011;2927;49.366;8.530;2023-03-05T10:14:20;10.97;;;5.07;;
5801;SDS011;2927;49.366;8.530;2023-03-05T10:17:02;13.03;;;5.40;;
5801;SDS011;2927;49.366;8.530;2023-03-05T10:22:54;9.53;;;4.97;;
5801;SDS011;2927;49.366;8.530;2023-03-05T10:28:33;8.60;;;4.37;;
5801;SDS011;2927;49.366;8.530;2023-03-05T10:33:50;11.97;;;5.40;;
5801;SDS011;2927;49.366;8.530;2023-03-05T10:42:00;8.47;;;3.27;;
5801;SDS011;2927;49.366;8.530;2023-03-05T10:44:43;9.17;;;4.33;;
5801;SDS011;2927;49.366;8.530;2023-03-05T10:47:26;8.20;;;4.47;;
5801;SDS011;2927;49.366;8.530;2023-03-05T10:49:54;10.67;;;4.73;;
5801;SDS011;2927;49.366;8.530;2023-03-05T10:54:52;9.17;;;4.40;;
5801;SDS011;2927;49.366;8.530;2023-03-05T10:57:25;12.17;;;5.43;;
5801;SDS011;2927;49.366;8.530;2023-03-05T10:59:53;10.93;;;5.10;;
5801;SDS011;2927;49.366;8.530;2023-03-05T11:02:22;14.27;;;7.90;;
5801;SDS011;2927;49.366;8.530;2023-03-05T11:04:48;23.57;;;9.93;;
5801;SDS011;2927;49.366;8.530;2023-03-05T11:10:03;13.30;;;5.30;;
5801;SDS011;2927;49.366;8.530;2023-03-05T11:12:41;8.90;;;4.07;;
5801;SDS011;2927;49.366;8.530;2023-03-05T11:17:39;29.97;;;14.30;;
5801;SDS011;2927;49.366;8.530;2023-03-05T11:28:27;10.03;;;4.90;;
5801;SDS011;2927;49.366;8.530;2023-03-05T11:30:56;8.93;;;4.93;;
5801;SDS011;2927;49.366;8.530;2023-03-05T11:33:24;16.27;;;6.60;;
5801;SDS011;2927;49.366;8.530;2023-03-05T11:35:50;10.20;;;4.30;;
5801;SDS011;2927;49.366;8.530;2023-03-05T11:38:21;7.00;;;3.73;;
5801;SDS011;2927;49.366;8.530;2023-03-05T11:40:52;8.23;;;3.73;;
5801;SDS011;2927;49.366;8.530;2023-03-05T11:43:21;8.73;;;4.10;;
5801;SDS011;2927;49.366;8.530;2023-03-05T11:45:51;4.93;;;3.10;;
5801;SDS011;2927;49.366;8.530;2023-03-05T11:48:30;8.47;;;3.63;;
5801;SDS011;2927;49.366;8.530;2023-03-05T11:51:01;11.50;;;5.03;;
5801;SDS011;2927;49.366;8.530;2023-03-05T11:53:30;8.93;;;3.97;;
5801;SDS011;2927;49.366;8.530;2023-03-05T11:58:51;7.73;;;3.03;;
5801;SDS011;2927;49.366;8.530;2023-03-05T12:01:20;6.70;;;3.10;;
5801;SDS011;2927;49.366;8.530;2023-03-05T12:03:47;9.77;;;4.30;;
5801;SDS011;2927;49.366;8.530;2023-03-05T12:09:03;7.87;;;3.67;;
5801;SDS011;2927;49.366;8.530;2023-03-05T12:11:50;6.80;;;3.60;;
5801;SDS011;2927;49.366;8.530;2023-03-05T12:14:27;6.50;;;3.33;;
5801;SDS011;2927;49.366;8.530;2023-03-05T12:17:13;12.83;;;4.63;;
5801;SDS011;2927;49.366;8.530;2023-03-05T12:19:54;9.10;;;3.80;;
5801;SDS011;2927;49.366;8.530;2023-03-05T12:22:35;3.87;;;2.77;;
5801;SDS011;2927;49.366;8.530;2023-03-05T12:27:51;15.10;;;5.63;;
5801;SDS011;2927;49.366;8.530;2023-03-05T12:32:57;7.90;;;3.97;;
5801;SDS011;2927;49.366;8.530;2023-03-05T12:37:57;9.70;;;4.80;;
5801;SDS011;2927;49.366;8.530;2023-03-05T12:40:29;16.23;;;7.67;;
5801;SDS011;2927;49.366;8.530;2023-03-05T12:42:57;9.53;;;5.13;;
5801;SDS011;2927;49.366;8.530;2023-03-05T12:45:25;8.27;;;3.70;;
5801;SDS011;2927;49.366;8.530;2023-03-05T12:52:57;12.13;;;3.93;;
5801;SDS011;2927;49.366;8.530;2023-03-05T12:55:36;4.60;;;2.20;;
5801;SDS011;2927;49.366;8.530;2023-03-05T13:04:00;7.67;;;2.20;;
5801;SDS011;2927;49.366;8.530;2023-03-05T13:06:35;5.27;;;3.07;;
5801;SDS011;2927;49.366;8.530;2023-03-05T13:09:18;11.10;;;4.77;;
5801;SDS011;2927;49.366;8.530;2023-03-05T13:11:49;7.50;;;3.10;;
5801;SDS011;2927;49.366;8.530;2023-03-05T13:14:22;3.83;;;2.57;;
5801;SDS011;2927;49.366;8.530;2023-03-05T13:17:02;3.17;;;2.57;;
5801;SDS011;2927;49.366;8.530;2023-03-05T13:19:58;6.67;;;2.67;;
5801;SDS011;2927;49.366;8.530;2023-03-05T13:22:25;3.67;;;2.67;;
5801;SDS011;2927;49.366;8.530;2023-03-05T13:27:37;4.53;;;2.00;;
5801;SDS011;2927;49.366;8.530;2023-03-05T13:30:03;6.53;;;2.10;;
5801;SDS011;2927;49.366;8.530;2023-03-05T13:32:30;2.43;;;2.00;;
5801;SDS011;2927;49.366;8.530;2023-03-05T13:34:57;3.93;;;2.17;;
5801;SDS011;2927;49.366;8.530;2023-03-05T13:37:29;1.77;;;1.37;;
5801;SDS011;2927;49.366;8.530;2023-03-05T13:40:12;2.00;;;1.57;;
5801;SDS011;2927;49.366;8.530;2023-03-05T13:42:43;4.20;;;1.93;;
5801;SDS011;2927;49.366;8.530;2023-03-05T13:47:40;1.87;;;1.70;;
5801;SDS011;2927;49.366;8.530;2023-03-05T13:50:23;2.37;;;1.63;;
5801;SDS011;2927;49.366;8.530;2023-03-05T13:52:49;11.30;;;3.20;;
5801;SDS011;2927;49.366;8.530;2023-03-05T13:55:15;3.33;;;1.83;;
5801;SDS011;2927;49.366;8.530;2023-03-05T13:57:46;3.50;;;2.20;;
5801;SDS011;2927;49.366;8.530;2023-03-05T14:00:34;11.70;;;5.80;;
5801;SDS011;2927;49.366;8.530;2023-03-05T14:03:26;7.03;;;3.40;;
5801;SDS011;2927;49.366;8.530;2023-03-05T14:05:52;11.70;;;5.27;;
5801;SDS011;2927;49.366;8.530;2023-03-05T14:08:22;27.97;;;11.40;;
5801;SDS011;2927;49.366;8.530;2023-03-05T14:10:49;15.77;;;7.57;;
5801;SDS011;2927;49.366;8.530;2023-03-05T14:13:18;10.80;;;5.40;;
5801;SDS011;2927;49.366;8.530;2023-03-05T14:18:37;7.73;;;3.33;;
5801;SDS011;2927;49.366;8.530;2023-03-05T14:21:16;3.97;;;2.80;;
5801;SDS011;2927;49.366;8.530;2023-03-05T14:23:42;9.20;;;3.90;;
5801;SDS011;2927;49.366;8.530;2023-03-05T14:28:37;4.87;;;2.43;;
5801;SDS011;2927;49.366;8.530;2023-03-05T14:31:03;5.70;;;3.10;;
5801;SDS011;2927;49.366;8.530;2023-03-05T14:33:40;3.23;;;2.83;;
5801;SDS011;2927;49.366;8.530;2023-03-05T14:36:05;4.47;;;2.70;;
5801;SDS011;2927;49.366;8.530;2023-03-05T14:38:32;6.47;;;3.30;;
5801;SDS011;2927;49.366;8.530;2023-03-05T14:43:43;5.73;;;3.13;;
5801;SDS011;2927;49.366;8.530;2023-03-05T14:46:09;3.10;;;2.53;;
5801;SDS011;2927;49.366;8.530;2023-03-05T14:48:35;2.83;;;1.97;;
5801;SDS011;2927;49.366;8.530;2023-03-05T14:51:01;7.10;;;3.73;;
5801;SDS011;2927;49.366;8.530;2023-03-05T14:53:27;11.77;;;4.40;;
5801;SDS011;2927;49.366;8.530;2023-03-05T14:55:59;5.63;;;3.03;;
5801;SDS011;2927;49.366;8.530;2023-03-05T14:58:29;8.10;;;3.20;;
5801;SDS011;2927;49.366;8.530;2023-03-05T15:00:56;7.67;;;3.37;;
5801;SDS011;2927;49.366;8.530;2023-03-05T15:03:22;5.67;;;2.50;;
5801;SDS011;2927;49.366;8.530;2023-03-05T15:05:50;7.13;;;4.20;;
5801;SDS011;2927;49.366;8.530;2023-03-05T15:08:21;5.87;;;3.70;;
5801;SDS011;2927;49.366;8.530;2023-03-05T15:10:49;6.77;;;3.60;;
5801;SDS011;2927;49.366;8.530;2023-03-05T15:13:15;6.17;;;2.97;;
5801;SDS011;2927;49.366;8.530;2023-03-05T15:15:41;2.83;;;2.47;;
5801;SDS011;2927;49.366;8.530;2023-03-05T15:18:09;4.73;;;3.37;;
5801;SDS011;2927;49.366;8.530;2023-03-05T15:20:37;2.80;;;2.03;;
5801;SDS011;2927;49.366;8.530;2023-03-05T15:23:03;6.37;;;2.80;;
5801;SDS011;2927;49.366;8.530;2023-03-05T15:25:29;4.33;;;2.77;;
5801;SDS011;2927;49.366;8.530;2023-03-05T15:27:55;6.43;;;2.83;;
5801;SDS011;2927;49.366;8.530;2023-03-05T15:30:22;3.60;;;2.63;;
5801;SDS011;2927;49.366;8.530;2023-03-05T15:32:51;10.03;;;6.10;;
5801;SDS011;2927;49.366;8.530;2023-03-05T15:35:18;7.70;;;5.60;;
5801;SDS011;2927;49.366;8.530;2023-03-05T15:37:44;6.47;;;3.70;;
5801;SDS011;2927;49.366;8.530;2023-03-05T15:40:10;6.20;;;4.20;;
5801;SDS011;2927;49.366;8.530;2023-03-05T15:42:36;13.53;;;3.50;;
5801;SDS011;2927;49.366;8.530;2023-03-05T15:45:02;4.80;;;2.43;;
5801;SDS011;2927;49.366;8.530;2023-03-05T15:47:28;3.87;;;2.50;;
5801;SDS011;2927;49.366;8.530;2023-03-05T15:49:53;6.13;;;3.63;;
5801;SDS011;2927;49.366;8.530;2023-03-05T15:52:19;7.37;;;3.37;;
5801;SDS011;2927;49.366;8.530;2023-03-05T15:54:44;9.67;;;4.20;;
5801;SDS011;2927;49.366;8.530;2023-03-05T15:57:10;12.60;;;4.50;;
5801;SDS011;2927;49.366;8.530;2023-03-05T15:59:36;8.00;;;4.53;;
5801;SDS011;2927;49.366;8.530;2023-03-05T16:02:02;10.37;;;4.90;;
5801;SDS011;2927;49.366;8.530;2023-03-05T16:04:28;6.27;;;3.63;;
5801;SDS011;2927;49.366;8.530;2023-03-05T16:06:54;7.67;;;4.47;;
5801;SDS011;2927;49.366;8.530;2023-03-05T16:09:23;7.50;;;4.03;;
5801;SDS011;2927;49.366;8.530;2023-03-05T16:11:53;7.30;;;3.30;;
5801;SDS011;2927;49.366;8.530;2023-03-05T16:14:21;7.67;;;2.90;;
5801;SDS011;2927;49.366;8.530;2023-03-05T16:16:49;4.87;;;3.10;;
5801;SDS011;2927;49.366;8.530;2023-03-05T16:19:17;5.30;;;3.43;;
5801;SDS011;2927;49.366;8.530;2023-03-05T16:21:44;8.10;;;3.43;;
5801;SDS011;2927;49.366;8.530;2023-03-05T16:24:10;5.00;;;3.37;;
5801;SDS011;2927;49.366;8.530;2023-03-05T16:26:36;9.53;;;4.73;;
5801;SDS011;2927;49.366;8.530;2023-03-05T16:29:03;12.70;;;5.47;;